sensor_id;sensor_type;location;lat;lon;timestamp;P1;durP1;ratioP1;P2;durP2;ratioP2
35380;SDS011;21486;51.916;8.378;2023-03-30T00:33:04;11.60;;;4.30;;
35380;SDS011;21486;51.916;8.378;2023-03-30T00:35:29;11.37;;;4.33;;
35380;SDS011;21486;51.916;8.378;2023-03-30T00:37:55;9.93;;;4.50;;
35380;SDS011;21486;51.916;8.378;2023-03-30T00:40:25;10.07;;;4.25;;
35380;SDS011;21486;51.916;8.378;2023-03-30T00:42:53;8.23;;;3.90;;
35380;SDS011;21486;51.916;8.378;2023-03-30T00:47:54;11.33;;;4.50;;
35380;SDS011;21486;51.916;8.378;2023-03-30T00:50:26;8.55;;;4.10;;
35380;SDS011;21486;51.916;8.378;2023-03-30T00:53:02;8.93;;;4.50;;
35380;SDS011;21486;51.916;8.378;2023-03-30T00:55:33;7.47;;;4.10;;
35380;SDS011;21486;51.916;8.378;2023-03-30T00:58:01;7.97;;;3.77;;
35380;SDS011;21486;51.916;8.378;2023-03-30T01:00:28;9.75;;;3.90;;
35380;SDS011;21486;51.916;8.378;2023-03-30T01:02:55;13.07;;;4.40;;
35380;SDS011;21486;51.916;8.378;2023-03-30T01:05:25;11.10;;;4.45;;
35380;SDS011;21486;51.916;8.378;2023-03-30T01:07:52;10.48;;;4.22;;
35380;SDS011;21486;51.916;8.378;2023-03-30T01:10:21;9.50;;;4.23;;
35380;SDS011;21486;51.916;8.378;2023-03-30T01:12:47;10.10;;;3.80;;
35380;SDS011;21486;51.916;8.378;2023-03-30T01:15:13;9.40;;;3.73;;
35380;SDS011;21486;51.916;8.378;2023-03-30T01:17:46;9.73;;;4.28;;
35380;SDS011;21486;51.916;8.378;2023-03-30T01:20:52;8.38;;;3.85;;
35380;SDS011;21486;51.916;8.378;2023-03-30T01:24:07;11.10;;;3.83;;
35380;SDS011;21486;51.916;8.378;2023-03-30T01:26:58;12.95;;;4.00;;
35380;SDS011;21486;51.916;8.378;2023-03-30T01:29:43;9.83;;;3.57;;
35380;SDS011;21486;51.916;8.378;2023-03-30T01:32:29;13.73;;;4.18;;
35380;SDS011;21486;51.916;8.378;2023-03-30T01:41:19;8.63;;;3.47;;
35380;SDS011;21486;51.916;8.378;2023-03-30T01:43:57;12.80;;;3.70;;
35380;SDS011;21486;51.916;8.378;2023-03-30T01:46:29;7.13;;;3.22;;
35380;SDS011;21486;51.916;8.378;2023-03-30T01:49:06;7.45;;;3.20;;
35380;SDS011;21486;51.916;8.378;2023-03-30T01:51:41;8.47;;;4.10;;
35380;SDS011;21486;51.916;8.378;2023-03-30T01:54:21;8.90;;;3.88;;
35380;SDS011;21486;51.916;8.378;2023-03-30T01:56:54;9.38;;;3.40;;
35380;SDS011;21486;51.916;8.378;2023-03-30T01:59:24;7.47;;;3.42;;
35380;SDS011;21486;51.916;8.378;2023-03-30T02:01:54;9.63;;;3.60;;
35380;SDS011;21486;51.916;8.378;2023-03-30T02:04:24;10.13;;;3.50;;
35380;SDS011;21486;51.916;8.378;2023-03-30T02:06:54;7.57;;;3.85;;
35380;SDS011;21486;51.916;8.378;2023-03-30T02:09:26;10.40;;;3.97;;
35380;SDS011;21486;51.916;8.378;2023-03-30T02:11:54;7.90;;;3.50;;
35380;SDS011;21486;51.916;8.378;2023-03-30T02:14:28;12.02;;;3.80;;
35380;SDS011;21486;51.916;8.378;2023-03-30T02:17:08;12.00;;;3.60;;
35380;SDS011;21486;51.916;8.378;2023-03-30T02:19:39;7.13;;;3.30;;
35380;SDS011;21486;51.916;8.378;2023-03-30T02:22:06;12.07;;;3.40;;
35380;SDS011;21486;51.916;8.378;2023-03-30T02:24:32;11.02;;;3.53;;
35380;SDS011;21486;51.916;8.378;2023-03-30T02:26:59;10.60;;;3.60;;
35380;SDS011;21486;51.916;8.378;2023-03-30T02:29:26;8.48;;;3.58;;
35380;SDS011;21486;51.916;8.378;2023-03-30T02:31:53;12.18;;;3.95;;
35380;SDS011;21486;51.916;8.378;2023-03-30T02:34:35;9.25;;;3.50;;
35380;SDS011;21486;51.916;8.378;2023-03-30T02:37:40;8.52;;;3.53;;
35380;SDS011;21486;51.916;8.378;2023-03-30T02:43:13;16.70;;;3.88;;
35380;SDS011;21486;51.916;8.378;2023-03-30T02:51:51;7.95;;;2.95;;
35380;SDS011;21486;51.916;8.378;2023-03-30T02:54:29;11.80;;;2.83;;
35380;SDS011;21486;51.916;8.378;2023-03-30T02:59:29;7.72;;;3.10;;
35380;SDS011;21486;51.916;8.378;2023-03-30T03:02:05;5.90;;;2.53;;
35380;SDS011;21486;51.916;8.378;2023-03-30T03:04:55;8.75;;;2.65;;
35380;SDS011;21486;51.916;8.378;2023-03-30T03:07:22;6.28;;;2.70;;
35380;SDS011;21486;51.916;8.378;2023-03-30T03:09:49;6.90;;;2.80;;
35380;SDS011;21486;51.916;8.378;2023-03-30T03:12:14;7.87;;;2.80;;
35380;SDS011;21486;51.916;8.378;2023-03-30T03:14:40;8.93;;;2.63;;
35380;SDS011;21486;51.916;8.378;2023-03-30T03:17:07;11.57;;;3.10;;
35380;SDS011;21486;51.916;8.378;2023-03-30T03:19:33;8.60;;;2.83;;
35380;SDS011;21486;51.916;8.378;2023-03-30T03:21:59;6.88;;;2.90;;
35380;SDS011;21486;51.916;8.378;2023-03-30T03:24:24;10.57;;;3.00;;
35380;SDS011;21486;51.916;8.378;2023-03-30T03:26:50;8.98;;;2.75;;
35380;SDS011;21486;51.916;8.378;2023-03-30T03:29:16;9.13;;;2.80;;
35380;SDS011;21486;51.916;8.378;2023-03-30T03:31:41;8.73;;;2.80;;
35380;SDS011;21486;51.916;8.378;2023-03-30T03:34:07;6.43;;;2.60;;
35380;SDS011;21486;51.916;8.378;2023-03-30T03:36:32;9.80;;;2.45;;
35380;SDS011;21486;51.916;8.378;2023-03-30T03:38:58;7.32;;;2.92;;
35380;SDS011;21486;51.916;8.378;2023-03-30T03:41:23;10.27;;;3.20;;
35380;SDS011;21486;51.916;8.378;2023-03-30T03:43:50;10.05;;;3.00;;
35380;SDS011;21486;51.916;8.378;2023-03-30T03:46:15;10.50;;;3.17;;
35380;SDS011;21486;51.916;8.378;2023-03-30T03:48:41;11.37;;;2.90;;
35380;SDS011;21486;51.916;8.378;2023-03-30T03:51:06;7.67;;;2.80;;
35380;SDS011;21486;51.916;8.378;2023-03-30T03:53:33;8.55;;;2.85;;
35380;SDS011;21486;51.916;8.378;2023-03-30T03:55:59;9.75;;;2.83;;
35380;SDS011;21486;51.916;8.378;2023-03-30T03:58:26;9.57;;;2.45;;
35380;SDS011;21486;51.916;8.378;2023-03-30T04:00:56;9.50;;;2.80;;
35380;SDS011;21486;51.916;8.378;2023-03-30T04:03:22;7.35;;;3.10;;
35380;SDS011;21486;51.916;8.378;2023-03-30T04:05:48;9.37;;;2.63;;
35380;SDS011;21486;51.916;8.378;2023-03-30T04:08:13;12.13;;;2.70;;
35380;SDS011;21486;51.916;8.378;2023-03-30T04:10:42;12.18;;;2.80;;
35380;SDS011;21486;51.916;8.378;2023-03-30T04:13:08;10.52;;;2.85;;
35380;SDS011;21486;51.916;8.378;2023-03-30T04:15:33;5.15;;;2.28;;
35380;SDS011;21486;51.916;8.378;2023-03-30T04:17:59;5.87;;;2.67;;
35380;SDS011;21486;51.916;8.378;2023-03-30T04:20:25;13.80;;;3.17;;
35380;SDS011;21486;51.916;8.378;2023-03-30T04:22:53;10.40;;;2.73;;
35380;SDS011;21486;51.916;8.378;2023-03-30T04:25:22;11.07;;;2.42;;
35380;SDS011;21486;51.916;8.378;2023-03-30T04:27:53;8.90;;;2.80;;
35380;SDS011;21486;51.916;8.378;2023-03-30T04:30:20;10.85;;;2.75;;
35380;SDS011;21486;51.916;8.378;2023-03-30T04:32:47;9.77;;;2.60;;
35380;SDS011;21486;51.916;8.378;2023-03-30T04:35:26;8.00;;;2.85;;
35380;SDS011;21486;51.916;8.378;2023-03-30T04:37:52;9.13;;;2.38;;
35380;SDS011;21486;51.916;8.378;2023-03-30T04:40:18;12.10;;;3.20;;
35380;SDS011;21486;51.916;8.378;2023-03-30T04:42:44;7.05;;;2.63;;
35380;SDS011;21486;51.916;8.378;2023-03-30T04:45:13;11.32;;;2.80;;
35380;SDS011;21486;51.916;8.378;2023-03-30T04:47:43;9.75;;;3.00;;
35380;SDS011;21486;51.916;8.378;2023-03-30T04:50:10;6.75;;;2.78;;
35380;SDS011;21486;51.916;8.378;2023-03-30T04:52:36;6.22;;;2.63;;
35380;SDS011;21486;51.916;8.378;2023-03-30T04:55:01;13.87;;;3.10;;
35380;SDS011;21486;51.916;8.378;2023-03-30T04:57:27;8.87;;;2.80;;
35380;SDS011;21486;51.916;8.378;2023-03-30T04:59:52;13.38;;;3.08;;
35380;SDS011;21486;51.916;8.378;2023-03-30T05:02:18;8.53;;;2.97;;
35380;SDS011;21486;51.916;8.378;2023-03-30T05:04:43;9.20;;;2.77;;
35380;SDS011;21486;51.916;8.378;2023-03-30T05:07:09;11.77;;;3.38;;
35380;SDS011;21486;51.916;8.378;2023-03-30T05:09:34;10.60;;;2.67;;
35380;SDS011;21486;51.916;8.378;2023-03-30T05:12:00;13.43;;;2.90;;
35380;SDS011;21486;51.916;8.378;2023-03-30T05:14:26;10.50;;;2.70;;
35380;SDS011;21486;51.916;8.378;2023-03-30T05:16:51;10.32;;;2.85;;
35380;SDS011;21486;51.916;8.378;2023-03-30T05:19:17;8.77;;;2.93;;
35380;SDS011;21486;51.916;8.378;2023-03-30T05:21:42;8.63;;;2.57;;
35380;SDS011;21486;51.916;8.378;2023-03-30T05:24:10;10.88;;;2.60;;
35380;SDS011;21486;51.916;8.378;2023-03-30T05:26:36;11.68;;;2.72;;
35380;SDS011;21486;51.916;8.378;2023-03-30T05:29:02;9.13;;;2.53;;
35380;SDS011;21486;51.916;8.378;2023-03-30T05:31:27;11.07;;;2.40;;
35380;SDS011;21486;51.916;8.378;2023-03-30T05:33:53;14.30;;;2.92;;
35380;SDS011;21486;51.916;8.378;2023-03-30T05:36:18;8.17;;;2.53;;
35380;SDS011;21486;51.916;8.378;2023-03-30T05:38:44;12.93;;;2.50;;
35380;SDS011;21486;51.916;8.378;2023-03-30T05:41:10;8.68;;;2.80;;
35380;SDS011;21486;51.916;8.378;2023-03-30T05:43:35;10.43;;;2.60;;
35380;SDS011;21486;51.916;8.378;2023-03-30T05:46:01;9.40;;;2.47;;
35380;SDS011;21486;51.916;8.378;2023-03-30T05:48:28;8.63;;;2.40;;
35380;SDS011;21486;51.916;8.378;2023-03-30T05:50:54;10.73;;;2.20;;
35380;SDS011;21486;51.916;8.378;2023-03-30T05:53:20;7.65;;;1.98;;
35380;SDS011;21486;51.916;8.378;2023-03-30T05:55:46;4.47;;;2.00;;
35380;SDS011;21486;51.916;8.378;2023-03-30T05:58:14;7.03;;;2.17;;
35380;SDS011;21486;51.916;8.378;2023-03-30T06:00:41;7.88;;;2.58;;
35380;SDS011;21486;51.916;8.378;2023-03-30T06:03:08;5.95;;;2.15;;
35380;SDS011;21486;51.916;8.378;2023-03-30T06:05:34;10.15;;;2.00;;
35380;SDS011;21486;51.916;8.378;2023-03-30T06:08:02;7.00;;;2.13;;
35380;SDS011;21486;51.916;8.378;2023-03-30T06:10:28;7.93;;;2.17;;
35380;SDS011;21486;51.916;8.378;2023-03-30T06:12:54;5.93;;;2.20;;
35380;SDS011;21486;51.916;8.378;2023-03-30T06:15:20;7.75;;;2.30;;
35380;SDS011;21486;51.916;8.378;2023-03-30T06:17:45;10.85;;;2.35;;
35380;SDS011;21486;51.916;8.378;2023-03-30T06:20:11;5.97;;;1.80;;
35380;SDS011;21486;51.916;8.378;2023-03-30T06:22:37;7.07;;;1.95;;
35380;SDS011;21486;51.916;8.378;2023-03-30T06:25:05;8.63;;;2.30;;
35380;SDS011;21486;51.916;8.378;2023-03-30T06:27:32;9.18;;;2.10;;
35380;SDS011;21486;51.916;8.378;2023-03-30T06:29:58;10.33;;;1.97;;
35380;SDS011;21486;51.916;8.378;2023-03-30T06:32:24;7.13;;;1.93;;
35380;SDS011;21486;51.916;8.378;2023-03-30T06:34:49;9.15;;;2.13;;
35380;SDS011;21486;51.916;8.378;2023-03-30T06:37:17;8.18;;;2.10;;
35380;SDS011;21486;51.916;8.378;2023-03-30T06:39:43;10.07;;;2.50;;
35380;SDS011;21486;51.916;8.378;2023-03-30T06:42:09;8.40;;;2.22;;
35380;SDS011;21486;51.916;8.378;2023-03-30T06:44:35;9.98;;;1.98;;
35380;SDS011;21486;51.916;8.378;2023-03-30T06:47:01;13.80;;;2.53;;
35380;SDS011;21486;51.916;8.378;2023-03-30T06:49:29;12.52;;;2.72;;
35380;SDS011;21486;51.916;8.378;2023-03-30T06:51:54;9.32;;;2.45;;
35380;SDS011;21486;51.916;8.378;2023-03-30T06:54:20;7.75;;;2.28;;
35380;SDS011;21486;51.916;8.378;2023-03-30T06:56:46;7.35;;;2.00;;
35380;SDS011;21486;51.916;8.378;2023-03-30T06:59:12;10.95;;;2.75;;
35380;SDS011;21486;51.916;8.378;2023-03-30T07:01:39;11.65;;;2.20;;
35380;SDS011;21486;51.916;8.378;2023-03-30T07:04:05;10.48;;;2.42;;
35380;SDS011;21486;51.916;8.378;2023-03-30T07:06:31;11.57;;;2.60;;
35380;SDS011;21486;51.916;8.378;2023-03-30T07:08:56;9.65;;;2.70;;
35380;SDS011;21486;51.916;8.378;2023-03-30T07:11:22;11.25;;;2.97;;
35380;SDS011;21486;51.916;8.378;2023-03-30T07:13:48;11.77;;;2.70;;
35380;SDS011;21486;51.916;8.378;2023-03-30T07:16:14;7.35;;;2.80;;
35380;SDS011;21486;51.916;8.378;2023-03-30T07:18:40;15.33;;;2.73;;
35380;SDS011;21486;51.916;8.378;2023-03-30T07:21:05;12.00;;;3.23;;
35380;SDS011;21486;51.916;8.378;2023-03-30T07:23:31;14.30;;;3.50;;
35380;SDS011;21486;51.916;8.378;2023-03-30T07:25:57;8.77;;;2.83;;
35380;SDS011;21486;51.916;8.378;2023-03-30T07:28:22;11.77;;;2.70;;
35380;SDS011;21486;51.916;8.378;2023-03-30T07:30:48;10.27;;;2.97;;
35380;SDS011;21486;51.916;8.378;2023-03-30T07:33:13;9.83;;;2.77;;
35380;SDS011;21486;51.916;8.378;2023-03-30T07:35:43;11.77;;;2.72;;
35380;SDS011;21486;51.916;8.378;2023-03-30T07:38:10;10.60;;;3.10;;
35380;SDS011;21486;51.916;8.378;2023-03-30T07:40:37;12.33;;;2.87;;
35380;SDS011;21486;51.916;8.378;2023-03-30T07:43:02;9.70;;;2.60;;
35380;SDS011;21486;51.916;8.378;2023-03-30T07:45:28;15.02;;;2.70;;
35380;SDS011;21486;51.916;8.378;2023-03-30T07:47:53;8.63;;;2.28;;
35380;SDS011;21486;51.916;8.378;2023-03-30T07:50:19;10.20;;;2.90;;
35380;SDS011;21486;51.916;8.378;2023-03-30T07:52:45;11.77;;;2.65;;
35380;SDS011;21486;51.916;8.378;2023-03-30T07:55:11;9.77;;;2.53;;
35380;SDS011;21486;51.916;8.378;2023-03-30T07:57:36;10.83;;;2.30;;
35380;SDS011;21486;51.916;8.378;2023-03-30T08:00:03;13.88;;;2.75;;
35380;SDS011;21486;51.916;8.378;2023-03-30T08:02:34;9.90;;;2.38;;
35380;SDS011;21486;51.916;8.378;2023-03-30T08:05:00;10.15;;;2.22;;
35380;SDS011;21486;51.916;8.378;2023-03-30T08:07:26;8.50;;;2.58;;
35380;SDS011;21486;51.916;8.378;2023-03-30T08:09:52;9.07;;;2.20;;
35380;SDS011;21486;51.916;8.378;2023-03-30T08:12:18;7.10;;;2.20;;
35380;SDS011;21486;51.916;8.378;2023-03-30T08:14:43;5.72;;;1.95;;
35380;SDS011;21486;51.916;8.378;2023-03-30T08:17:09;9.10;;;2.30;;
35380;SDS011;21486;51.916;8.378;2023-03-30T08:19:34;7.83;;;2.27;;
35380;SDS011;21486;51.916;8.378;2023-03-30T08:22:00;11.70;;;1.97;;
35380;SDS011;21486;51.916;8.378;2023-03-30T08:24:26;7.47;;;2.30;;
35380;SDS011;21486;51.916;8.378;2023-03-30T08:26:51;10.43;;;2.30;;
35380;SDS011;21486;51.916;8.378;2023-03-30T08:29:17;7.27;;;2.20;;
35380;SDS011;21486;51.916;8.378;2023-03-30T08:31:42;8.40;;;2.03;;
35380;SDS011;21486;51.916;8.378;2023-03-30T08:34:09;10.57;;;2.28;;
35380;SDS011;21486;51.916;8.378;2023-03-30T08:36:35;6.35;;;2.15;;
35380;SDS011;21486;51.916;8.378;2023-03-30T08:39:01;8.98;;;2.40;;
35380;SDS011;21486;51.916;8.378;2023-03-30T08:46:38;8.80;;;2.05;;
35380;SDS011;21486;51.916;8.378;2023-03-30T08:49:07;11.07;;;2.60;;
35380;SDS011;21486;51.916;8.378;2023-03-30T08:51:39;9.73;;;2.15;;
35380;SDS011;21486;51.916;8.378;2023-03-30T08:54:08;8.93;;;2.60;;
35380;SDS011;21486;51.916;8.378;2023-03-30T08:56:39;6.47;;;2.78;;
35380;SDS011;21486;51.916;8.378;2023-03-30T09:02:21;11.63;;;2.60;;
35380;SDS011;21486;51.916;8.378;2023-03-30T09:10:20;9.60;;;2.43;;
35380;SDS011;21486;51.916;8.378;2023-03-30T09:12:56;9.13;;;2.30;;
35380;SDS011;21486;51.916;8.378;2023-03-30T09:15:27;6.72;;;2.22;;
35380;SDS011;21486;51.916;8.378;2023-03-30T09:17:59;6.78;;;2.33;;
35380;SDS011;21486;51.916;8.378;2023-03-30T09:20:41;6.18;;;2.03;;
35380;SDS011;21486;51.916;8.378;2023-03-30T09:23:10;7.13;;;2.58;;
35380;SDS011;21486;51.916;8.378;2023-03-30T09:31:03;4.35;;;2.20;;
35380;SDS011;21486;51.916;8.378;2023-03-30T09:33:56;5.57;;;2.40;;
35380;SDS011;21486;51.916;8.378;2023-03-30T09:36:30;8.52;;;2.15;;
35380;SDS011;21486;51.916;8.378;2023-03-30T09:39:35;9.77;;;2.38;;
35380;SDS011;21486;51.916;8.378;2023-03-30T09:44:40;8.00;;;2.83;;
35380;SDS011;21486;51.916;8.378;2023-03-30T09:47:18;7.90;;;2.47;;
35380;SDS011;21486;51.916;8.378;2023-03-30T09:49:56;7.63;;;2.20;;
35380;SDS011;21486;51.916;8.378;2023-03-30T09:52:33;10.32;;;2.45;;
35380;SDS011;21486;51.916;8.378;2023-03-30T09:55:23;11.35;;;3.13;;
35380;SDS011;21486;51.916;8.378;2023-03-30T09:57:52;12.50;;;3.70;;
35380;SDS011;21486;51.916;8.378;2023-03-30T10:00:25;13.85;;;4.18;;
35380;SDS011;21486;51.916;8.378;2023-03-30T10:02:56;14.32;;;4.32;;
35380;SDS011;21486;51.916;8.378;2023-03-30T10:05:23;12.88;;;4.00;;
35380;SDS011;21486;51.916;8.378;2023-03-30T10:07:54;11.93;;;2.83;;
35380;SDS011;21486;51.916;8.378;2023-03-30T10:12:50;11.50;;;3.10;;
35380;SDS011;21486;51.916;8.378;2023-03-30T10:15:20;11.40;;;3.28;;
35380;SDS011;21486;51.916;8.378;2023-03-30T10:17:47;10.50;;;2.50;;
35380;SDS011;21486;51.916;8.378;2023-03-30T10:20:23;11.82;;;2.50;;
35380;SDS011;21486;51.916;8.378;2023-03-30T10:22:59;12.43;;;2.50;;
35380;SDS011;21486;51.916;8.378;2023-03-30T10:25:46;9.70;;;2.20;;
35380;SDS011;21486;51.916;8.378;2023-03-30T10:28:16;11.65;;;2.72;;
35380;SDS011;21486;51.916;8.378;2023-03-30T10:30:53;7.88;;;2.20;;
35380;SDS011;21486;51.916;8.378;2023-03-30T10:33:28;10.07;;;2.55;;
35380;SDS011;21486;51.916;8.378;2023-03-30T10:35:56;10.43;;;2.40;;
35380;SDS011;21486;51.916;8.378;2023-03-30T10:38:29;8.98;;;2.50;;
35380;SDS011;21486;51.916;8.378;2023-03-30T10:40:59;9.52;;;2.30;;
35380;SDS011;21486;51.916;8.378;2023-03-30T10:43:46;10.40;;;2.37;;
35380;SDS011;21486;51.916;8.378;2023-03-30T10:46:14;10.15;;;2.22;;
35380;SDS011;21486;51.916;8.378;2023-03-30T10:48:52;9.10;;;1.88;;
35380;SDS011;21486;51.916;8.378;2023-03-30T10:54:28;9.25;;;2.30;;
35380;SDS011;21486;51.916;8.378;2023-03-30T10:57:02;9.20;;;2.00;;
35380;SDS011;21486;51.916;8.378;2023-03-30T10:59:45;6.75;;;2.10;;
35380;SDS011;21486;51.916;8.378;2023-03-30T11:02:19;8.15;;;1.95;;
35380;SDS011;21486;51.916;8.378;2023-03-30T11:05:02;7.80;;;1.98;;
35380;SDS011;21486;51.916;8.378;2023-03-30T11:07:38;10.07;;;2.10;;
35380;SDS011;21486;51.916;8.378;2023-03-30T11:10:18;8.23;;;2.25;;
35380;SDS011;21486;51.916;8.378;2023-03-30T11:12:48;8.02;;;1.67;;
35380;SDS011;21486;51.916;8.378;2023-03-30T11:15:23;7.82;;;1.75;;
35380;SDS011;21486;51.916;8.378;2023-03-30T11:18:02;10.50;;;2.20;;
35380;SDS011;21486;51.916;8.378;2023-03-30T11:20:53;8.10;;;1.65;;
35380;SDS011;21486;51.916;8.378;2023-03-30T11:23:24;9.40;;;1.77;;
35380;SDS011;21486;51.916;8.378;2023-03-30T11:26:09;10.30;;;1.88;;
35380;SDS011;21486;51.916;8.378;2023-03-30T11:31:39;8.05;;;1.70;;
35380;SDS011;21486;51.916;8.378;2023-03-30T11:37:00;5.50;;;1.80;;
35380;SDS011;21486;51.916;8.378;2023-03-30T11:39:38;6.97;;;1.97;;
35380;SDS011;21486;51.916;8.378;2023-03-30T11:42:13;5.85;;;1.80;;
35380;SDS011;21486;51.916;8.378;2023-03-30T11:44:42;8.52;;;1.90;;
35380;SDS011;21486;51.916;8.378;2023-03-30T11:47:13;9.23;;;2.13;;
35380;SDS011;21486;51.916;8.378;2023-03-30T11:56:00;8.05;;;2.10;;
35380;SDS011;21486;51.916;8.378;2023-03-30T11:58:52;10.17;;;1.90;;
35380;SDS011;21486;51.916;8.378;2023-03-30T12:04:14;8.38;;;2.10;;
35380;SDS011;21486;51.916;8.378;2023-03-30T12:06:46;11.20;;;2.20;;
35380;SDS011;21486;51.916;8.378;2023-03-30T12:23:32;12.48;;;2.53;;
35380;SDS011;21486;51.916;8.378;2023-03-30T12:26:10;12.13;;;2.15;;
35380;SDS011;21486;51.916;8.378;2023-03-30T12:28:59;10.75;;;2.60;;
35380;SDS011;21486;51.916;8.378;2023-03-30T12:32:01;10.05;;;2.53;;
35380;SDS011;21486;51.916;8.378;2023-03-30T12:34:33;11.77;;;2.83;;
35380;SDS011;21486;51.916;8.378;2023-03-30T12:37:03;15.15;;;2.95;;
35380;SDS011;21486;51.916;8.378;2023-03-30T12:39:40;13.18;;;3.28;;
35380;SDS011;21486;51.916;8.378;2023-03-30T12:45:16;10.60;;;3.10;;
35380;SDS011;21486;51.916;8.378;2023-03-30T13:02:16;7.60;;;1.90;;
35380;SDS011;21486;51.916;8.378;2023-03-30T13:05:24;7.13;;;2.00;;
35380;SDS011;21486;51.916;8.378;2023-03-30T13:07:55;11.95;;;2.40;;
35380;SDS011;21486;51.916;8.378;2023-03-30T13:13:00;10.95;;;2.30;;
35380;SDS011;21486;51.916;8.378;2023-03-30T13:15:40;10.57;;;2.45;;
35380;SDS011;21486;51.916;8.378;2023-03-30T13:21:22;16.90;;;2.78;;
35380;SDS011;21486;51.916;8.378;2023-03-30T13:23:32;14.07;;;2.80;;
35380;SDS011;21486;51.916;8.378;2023-03-30T13:28:56;12.85;;;2.65;;
35380;SDS011;21486;51.916;8.378;2023-03-30T13:40:07;15.80;;;3.00;;
35380;SDS011;21486;51.916;8.378;2023-03-30T13:42:58;16.75;;;3.10;;
35380;SDS011;21486;51.916;8.378;2023-03-30T13:48:37;11.47;;;3.33;;
35380;SDS011;21486;51.916;8.378;2023-03-30T13:51:15;16.30;;;3.45;;
35380;SDS011;21486;51.916;8.378;2023-03-30T13:53:45;12.90;;;2.97;;
35380;SDS011;21486;51.916;8.378;2023-03-30T13:56:15;15.43;;;3.15;;
35380;SDS011;21486;51.916;8.378;2023-03-30T13:58:43;18.42;;;2.90;;
35380;SDS011;21486;51.916;8.378;2023-03-30T14:01:17;13.93;;;3.40;;
35380;SDS011;21486;51.916;8.378;2023-03-30T14:03:55;17.40;;;3.65;;
35380;SDS011;21486;51.916;8.378;2023-03-30T14:06:22;18.50;;;3.72;;
35380;SDS011;21486;51.916;8.378;2023-03-30T14:14:04;15.70;;;3.45;;
35380;SDS011;21486;51.916;8.378;2023-03-30T14:16:32;12.80;;;3.38;;
35380;SDS011;21486;51.916;8.378;2023-03-30T14:21:41;19.33;;;4.05;;
35380;SDS011;21486;51.916;8.378;2023-03-30T14:24:12;19.50;;;4.10;;
35380;SDS011;21486;51.916;8.378;2023-03-30T14:26:45;12.80;;;3.30;;
35380;SDS011;21486;51.916;8.378;2023-03-30T14:29:15;13.38;;;2.95;;
35380;SDS011;21486;51.916;8.378;2023-03-30T14:31:43;13.45;;;2.78;;
35380;SDS011;21486;51.916;8.378;2023-03-30T14:34:26;13.40;;;2.63;;
35380;SDS011;21486;51.916;8.378;2023-03-30T14:36:53;6.60;;;2.25;;
35380;SDS011;21486;51.916;8.378;2023-03-30T14:39:22;11.77;;;2.35;;
35380;SDS011;21486;51.916;8.378;2023-03-30T14:41:48;7.77;;;2.00;;
35380;SDS011;21486;51.916;8.378;2023-03-30T14:44:15;10.20;;;1.80;;
35380;SDS011;21486;51.916;8.378;2023-03-30T14:46:44;8.00;;;2.10;;
35380;SDS011;21486;51.916;8.378;2023-03-30T14:49:15;9.52;;;2.40;;
35380;SDS011;21486;51.916;8.378;2023-03-30T14:51:58;7.87;;;2.73;;
35380;SDS011;21486;51.916;8.378;2023-03-30T14:54:25;6.18;;;2.35;;
35380;SDS011;21486;51.916;8.378;2023-03-30T14:56:55;12.65;;;2.47;;
35380;SDS011;21486;51.916;8.378;2023-03-30T14:59:24;10.23;;;2.40;;
35380;SDS011;21486;51.916;8.378;2023-03-30T15:01:51;9.38;;;2.75;;
35380;SDS011;21486;51.916;8.378;2023-03-30T15:04:17;7.97;;;2.53;;
35380;SDS011;21486;51.916;8.378;2023-03-30T15:06:47;11.80;;;3.10;;
35380;SDS011;21486;51.916;8.378;2023-03-30T15:09:17;8.17;;;2.93;;
35380;SDS011;21486;51.916;8.378;2023-03-30T15:11:44;13.13;;;3.00;;
35380;SDS011;21486;51.916;8.378;2023-03-30T15:14:16;12.45;;;3.40;;
35380;SDS011;21486;51.916;8.378;2023-03-30T15:16:46;13.38;;;3.10;;
35380;SDS011;21486;51.916;8.378;2023-03-30T15:21:59;11.02;;;3.38;;
35380;SDS011;21486;51.916;8.378;2023-03-30T15:24:29;11.95;;;2.95;;
35380;SDS011;21486;51.916;8.378;2023-03-30T15:26:57;14.05;;;2.75;;
35380;SDS011;21486;51.916;8.378;2023-03-30T15:29:26;12.05;;;3.58;;
35380;SDS011;21486;51.916;8.378;2023-03-30T15:31:59;10.18;;;3.53;;
35380;SDS011;21486;51.916;8.378;2023-03-30T15:34:31;12.07;;;3.55;;
35380;SDS011;21486;51.916;8.378;2023-03-30T15:36:57;15.15;;;3.88;;
35380;SDS011;21486;51.916;8.378;2023-03-30T15:39:30;12.07;;;3.58;;
35380;SDS011;21486;51.916;8.378;2023-03-30T15:42:01;14.60;;;3.63;;
35380;SDS011;21486;51.916;8.378;2023-03-30T15:44:33;11.60;;;3.03;;
35380;SDS011;21486;51.916;8.378;2023-03-30T15:47:00;13.40;;;3.95;;
35380;SDS011;21486;51.916;8.378;2023-03-30T15:49:29;16.48;;;4.53;;
35380;SDS011;21486;51.916;8.378;2023-03-30T15:52:02;11.95;;;3.70;;
35380;SDS011;21486;51.916;8.378;2023-03-30T15:54:35;16.58;;;4.22;;
35380;SDS011;21486;51.916;8.378;2023-03-30T15:57:05;15.70;;;3.80;;
35380;SDS011;21486;51.916;8.378;2023-03-30T15:59:35;12.90;;;3.25;;
35380;SDS011;21486;51.916;8.378;2023-03-30T16:02:14;12.68;;;3.63;;
35380;SDS011;21486;51.916;8.378;2023-03-30T16:04:41;12.65;;;3.25;;
35380;SDS011;21486;51.916;8.378;2023-03-30T16:07:15;10.87;;;3.00;;
35380;SDS011;21486;51.916;8.378;2023-03-30T16:09:42;8.73;;;2.60;;
35380;SDS011;21486;51.916;8.378;2023-03-30T16:12:10;7.53;;;2.50;;
35380;SDS011;21486;51.916;8.378;2023-03-30T16:14:38;9.60;;;2.75;;
35380;SDS011;21486;51.916;8.378;2023-03-30T16:17:03;8.05;;;2.50;;
35380;SDS011;21486;51.916;8.378;2023-03-30T16:19:29;12.02;;;3.20;;
35380;SDS011;21486;51.916;8.378;2023-03-30T16:21:55;12.70;;;3.40;;
35380;SDS011;21486;51.916;8.378;2023-03-30T16:24:20;9.37;;;2.43;;
35380;SDS011;21486;51.916;8.378;2023-03-30T16:26:46;17.50;;;3.00;;
35380;SDS011;21486;51.916;8.378;2023-03-30T16:29:18;11.38;;;2.75;;
35380;SDS011;21486;51.916;8.378;2023-03-30T16:31:46;11.43;;;3.50;;
35380;SDS011;21486;51.916;8.378;2023-03-30T16:34:12;13.33;;;3.47;;
35380;SDS011;21486;51.916;8.378;2023-03-30T16:36:38;13.67;;;3.53;;
35380;SDS011;21486;51.916;8.378;2023-03-30T16:39:05;9.95;;;3.28;;
35380;SDS011;21486;51.916;8.378;2023-03-30T16:41:46;14.93;;;3.47;;
35380;SDS011;21486;51.916;8.378;2023-03-30T16:44:13;15.98;;;4.10;;
35380;SDS011;21486;51.916;8.378;2023-03-30T16:46:42;12.60;;;3.83;;
35380;SDS011;21486;51.916;8.378;2023-03-30T16:49:11;15.05;;;3.60;;
35380;SDS011;21486;51.916;8.378;2023-03-30T16:51:42;16.38;;;4.20;;
35380;SDS011;21486;51.916;8.378;2023-03-30T16:54:08;17.10;;;4.22;;
35380;SDS011;21486;51.916;8.378;2023-03-30T16:56:34;14.63;;;4.70;;
35380;SDS011;21486;51.916;8.378;2023-03-30T16:59:00;14.20;;;4.38;;
35380;SDS011;21486;51.916;8.378;2023-03-30T17:01:27;19.35;;;5.10;;
35380;SDS011;21486;51.916;8.378;2023-03-30T17:03:53;22.33;;;5.87;;
35380;SDS011;21486;51.916;8.378;2023-03-30T17:06:19;22.20;;;5.80;;
35380;SDS011;21486;51.916;8.378;2023-03-30T17:08:46;18.23;;;5.35;;
35380;SDS011;21486;51.916;8.378;2023-03-30T17:11:13;14.48;;;4.65;;
35380;SDS011;21486;51.916;8.378;2023-03-30T17:13:40;22.58;;;6.57;;
35380;SDS011;21486;51.916;8.378;2023-03-30T17:16:06;19.23;;;6.07;;
35380;SDS011;21486;51.916;8.378;2023-03-30T17:18:33;16.63;;;4.53;;
35380;SDS011;21486;51.916;8.378;2023-03-30T17:20:59;9.67;;;4.00;;
35380;SDS011;21486;51.916;8.378;2023-03-30T17:23:26;16.17;;;4.70;;
35380;SDS011;21486;51.916;8.378;2023-03-30T17:25:54;16.08;;;4.38;;
35380;SDS011;21486;51.916;8.378;2023-03-30T17:30:46;17.50;;;4.38;;
35380;SDS011;21486;51.916;8.378;2023-03-30T17:33:13;15.90;;;4.30;;
35380;SDS011;21486;51.916;8.378;2023-03-30T17:35:39;17.27;;;4.68;;
35380;SDS011;21486;51.916;8.378;2023-03-30T17:38:08;17.13;;;6.15;;